This is the latest recevied weather packets stored in our database for station/object WP4PW. If no packets are shown the sender has not sent any weather packets the latest 10 day(s).
| Time | Temp. | Humidity | Pressure | Rain* | Wind** | Luminosity | Snow |
|---|---|---|---|---|---|---|---|
| 1777815820 | 30° C | 74% | 1022.6 hPa | 0 mm | - | 600 W/m² | - |
| 1777815517 | 29.44° C | 77% | 1022.4 hPa | 0 mm | - | 588 W/m² | - |
| 1777815214 | 29.44° C | 78% | 1022.4 hPa | 0 mm | - | 574 W/m² | - |
| 1777814910 | 28.89° C | 78% | 1022.4 hPa | 0 mm | - | 560 W/m² | - |
| 1777814607 | 28.89° C | 78% | 1022.6 hPa | 0 mm | - | 544 W/m² | - |
| 1777814304 | 28.89° C | 79% | 1022.7 hPa | 0 mm | - | 544 W/m² | - |
| 1777814000 | 29.44° C | 78% | 1022.6 hPa | 0 mm | - | 583 W/m² | - |
| 1777813698 | 28.89° C | 79% | 1022.5 hPa | 0 mm | - | 525 W/m² | - |
| 1777813395 | 29.44° C | 78% | 1022.5 hPa | 0 mm | - | 332 W/m² | - |
| 1777813093 | 28.89° C | 79% | 1022.6 hPa | 0 mm | - | 545 W/m² | - |
| 1777812790 | 28.89° C | 80% | 1022.6 hPa | 0 mm | - | 489 W/m² | - |
| 1777812486 | 28.89° C | 78% | 1022.5 hPa | 0 mm | - | 465 W/m² | - |
| 1777812184 | 28.89° C | 79% | 1022.3 hPa | 0 mm | - | 447 W/m² | - |
| 1777811883 | 28.89° C | 80% | 1022.3 hPa | 0 mm | - | 450 W/m² | - |
| 1777811581 | 28.89° C | 81% | 1022.4 hPa | 0 mm | - | 450 W/m² | - |
| 1777811276 | 28.33° C | 80% | 1022.3 hPa | 0 mm | - | 445 W/m² | - |
| 1777810974 | 27.78° C | 82% | 1022.3 hPa | 0 mm | - | 136 W/m² | - |
| 1777810670 | 28.33° C | 81% | 1022.3 hPa | 0 mm | - | 343 W/m² | - |
| 1777810367 | 27.78° C | 82% | 1022 hPa | 0 mm | - | 143 W/m² | - |
| 1777810063 | 28.33° C | 82% | 1022 hPa | 0 mm | - | 110 W/m² | - |
| 1777809761 | 28.89° C | 81% | 1021.9 hPa | 0 mm | - | 317 W/m² | - |
| 1777809458 | 27.78° C | 84% | 1021.9 hPa | 0 mm | - | 365 W/m² | - |
| 1777809155 | 27.78° C | 83% | 1022 hPa | 0 mm | - | 72 W/m² | - |
| 1777808848 | 28.33° C | 83% | 1021.7 hPa | 0 mm | - | 332 W/m² | - |
| 1777808544 | 28.33° C | 82% | 1021.7 hPa | 0 mm | - | 289 W/m² | - |
* Rain latest hour (hover to see other rain measurements)
** Current wind speed in m/s (hover to see current wind gust speed)